sensor_id;sensor_type;location;lat;lon;timestamp;temperature;humidity
15900;DHT22;8048;50.644;6.184;2023-04-24T00:01:39;8.60;99.90
15900;DHT22;8048;50.644;6.184;2023-04-24T00:04:05;8.50;99.90
15900;DHT22;8048;50.644;6.184;2023-04-24T00:06:32;8.50;99.90
15900;DHT22;8048;50.644;6.184;2023-04-24T00:09:05;8.50;99.90
15900;DHT22;8048;50.644;6.184;2023-04-24T00:11:31;8.50;99.90
15900;DHT22;8048;50.644;6.184;2023-04-24T00:13:57;8.50;99.90
15900;DHT22;8048;50.644;6.184;2023-04-24T00:16:23;8.50;99.90
15900;DHT22;8048;50.644;6.184;2023-04-24T00:18:48;8.40;99.90
15900;DHT22;8048;50.644;6.184;2023-04-24T00:21:15;8.40;99.90
15900;DHT22;8048;50.644;6.184;2023-04-24T00:23:43;8.30;99.90
15900;DHT22;8048;50.644;6.184;2023-04-24T00:26:09;8.30;99.90
15900;DHT22;8048;50.644;6.184;2023-04-24T00:28:34;8.30;99.90
15900;DHT22;8048;50.644;6.184;2023-04-24T00:31:00;8.20;99.90
15900;DHT22;8048;50.644;6.184;2023-04-24T00:33:25;8.20;99.90
15900;DHT22;8048;50.644;6.184;2023-04-24T00:35:51;8.10;99.90
15900;DHT22;8048;50.644;6.184;2023-04-24T00:38:16;8.00;99.90
15900;DHT22;8048;50.644;6.184;2023-04-24T00:40:42;8.00;99.90
15900;DHT22;8048;50.644;6.184;2023-04-24T00:43:07;7.90;99.90
15900;DHT22;8048;50.644;6.184;2023-04-24T00:45:33;7.80;99.90
15900;DHT22;8048;50.644;6.184;2023-04-24T00:48:00;7.70;99.90
15900;DHT22;8048;50.644;6.184;2023-04-24T00:50:25;7.60;99.90
15900;DHT22;8048;50.644;6.184;2023-04-24T00:52:51;7.60;99.90
15900;DHT22;8048;50.644;6.184;2023-04-24T00:55:18;7.50;99.90
15900;DHT22;8048;50.644;6.184;2023-04-24T00:57:44;7.40;99.90
15900;DHT22;8048;50.644;6.184;2023-04-24T01:00:11;7.40;99.90
15900;DHT22;8048;50.644;6.184;2023-04-24T01:02:39;7.30;99.90
15900;DHT22;8048;50.644;6.184;2023-04-24T01:05:07;7.30;99.90
15900;DHT22;8048;50.644;6.184;2023-04-24T01:07:34;7.40;99.90
15900;DHT22;8048;50.644;6.184;2023-04-24T01:09:59;7.40;99.90
15900;DHT22;8048;50.644;6.184;2023-04-24T01:12:25;7.40;99.90
15900;DHT22;8048;50.644;6.184;2023-04-24T01:14:51;7.30;99.90
15900;DHT22;8048;50.644;6.184;2023-04-24T01:17:16;7.30;99.90
15900;DHT22;8048;50.644;6.184;2023-04-24T01:19:42;7.30;99.90
15900;DHT22;8048;50.644;6.184;2023-04-24T01:22:14;7.30;99.90
15900;DHT22;8048;50.644;6.184;2023-04-24T01:24:40;7.30;99.90
15900;DHT22;8048;50.644;6.184;2023-04-24T01:27:07;7.30;99.90
15900;DHT22;8048;50.644;6.184;2023-04-24T01:29:32;7.30;99.90
15900;DHT22;8048;50.644;6.184;2023-04-24T01:31:58;7.30;99.90
15900;DHT22;8048;50.644;6.184;2023-04-24T01:34:24;7.20;99.90
15900;DHT22;8048;50.644;6.184;2023-04-24T01:36:49;7.20;99.90
15900;DHT22;8048;50.644;6.184;2023-04-24T01:39:15;7.20;99.90
15900;DHT22;8048;50.644;6.184;2023-04-24T01:41:42;7.10;99.90
15900;DHT22;8048;50.644;6.184;2023-04-24T01:44:07;7.10;99.90
15900;DHT22;8048;50.644;6.184;2023-04-24T01:46:33;7.10;99.90
15900;DHT22;8048;50.644;6.184;2023-04-24T01:49:00;7.10;99.90
15900;DHT22;8048;50.644;6.184;2023-04-24T01:51:26;7.10;99.90
15900;DHT22;8048;50.644;6.184;2023-04-24T01:53:52;7.10;99.90
15900;DHT22;8048;50.644;6.184;2023-04-24T01:56:22;7.10;99.90
15900;DHT22;8048;50.644;6.184;2023-04-24T01:58:49;7.00;99.90
15900;DHT22;8048;50.644;6.184;2023-04-24T02:01:18;7.00;99.90
15900;DHT22;8048;50.644;6.184;2023-04-24T02:03:44;7.00;99.90
15900;DHT22;8048;50.644;6.184;2023-04-24T02:06:10;7.00;99.90
15900;DHT22;8048;50.644;6.184;2023-04-24T02:08:35;7.00;99.90
15900;DHT22;8048;50.644;6.184;2023-04-24T02:11:01;7.00;99.90
15900;DHT22;8048;50.644;6.184;2023-04-24T02:13:27;7.00;99.90
15900;DHT22;8048;50.644;6.184;2023-04-24T02:15:53;7.00;99.90
15900;DHT22;8048;50.644;6.184;2023-04-24T02:18:18;7.00;99.90
15900;DHT22;8048;50.644;6.184;2023-04-24T02:20:44;6.90;99.90
15900;DHT22;8048;50.644;6.184;2023-04-24T02:23:10;7.00;99.90
15900;DHT22;8048;50.644;6.184;2023-04-24T02:25:36;7.00;99.90
15900;DHT22;8048;50.644;6.184;2023-04-24T02:28:01;6.90;99.90
15900;DHT22;8048;50.644;6.184;2023-04-24T02:30:28;6.90;99.90
15900;DHT22;8048;50.644;6.184;2023-04-24T02:32:53;6.90;99.90
15900;DHT22;8048;50.644;6.184;2023-04-24T02:35:19;6.90;99.90
15900;DHT22;8048;50.644;6.184;2023-04-24T02:37:45;6.90;99.90
15900;DHT22;8048;50.644;6.184;2023-04-24T02:40:10;6.90;99.90
15900;DHT22;8048;50.644;6.184;2023-04-24T02:42:36;6.90;99.90
15900;DHT22;8048;50.644;6.184;2023-04-24T02:45:02;6.90;99.90
15900;DHT22;8048;50.644;6.184;2023-04-24T02:47:27;6.90;99.90
15900;DHT22;8048;50.644;6.184;2023-04-24T02:49:53;6.90;99.90
15900;DHT22;8048;50.644;6.184;2023-04-24T02:52:18;6.90;99.90
15900;DHT22;8048;50.644;6.184;2023-04-24T02:54:44;6.90;99.90
15900;DHT22;8048;50.644;6.184;2023-04-24T02:57:09;6.80;99.90
15900;DHT22;8048;50.644;6.184;2023-04-24T02:59:35;6.90;99.90
15900;DHT22;8048;50.644;6.184;2023-04-24T03:02:00;6.90;99.90
15900;DHT22;8048;50.644;6.184;2023-04-24T03:04:26;6.90;99.90
15900;DHT22;8048;50.644;6.184;2023-04-24T03:06:52;7.00;99.90
15900;DHT22;8048;50.644;6.184;2023-04-24T03:09:20;7.00;99.90
15900;DHT22;8048;50.644;6.184;2023-04-24T03:11:46;7.00;99.90
15900;DHT22;8048;50.644;6.184;2023-04-24T03:14:12;7.00;99.90
15900;DHT22;8048;50.644;6.184;2023-04-24T03:16:37;7.00;99.90
15900;DHT22;8048;50.644;6.184;2023-04-24T03:19:03;6.90;99.90
15900;DHT22;8048;50.644;6.184;2023-04-24T03:21:28;6.80;99.90
15900;DHT22;8048;50.644;6.184;2023-04-24T03:23:54;6.90;99.90
15900;DHT22;8048;50.644;6.184;2023-04-24T03:26:20;6.90;99.90
15900;DHT22;8048;50.644;6.184;2023-04-24T03:28:45;6.80;99.90
15900;DHT22;8048;50.644;6.184;2023-04-24T03:31:11;6.80;99.90
15900;DHT22;8048;50.644;6.184;2023-04-24T03:33:36;6.80;99.90
15900;DHT22;8048;50.644;6.184;2023-04-24T03:36:02;6.80;99.90
15900;DHT22;8048;50.644;6.184;2023-04-24T03:38:28;6.80;99.90
15900;DHT22;8048;50.644;6.184;2023-04-24T03:40:53;6.70;99.90
15900;DHT22;8048;50.644;6.184;2023-04-24T03:43:19;6.70;99.90
15900;DHT22;8048;50.644;6.184;2023-04-24T03:45:44;6.70;99.90
15900;DHT22;8048;50.644;6.184;2023-04-24T03:48:10;6.70;99.90
15900;DHT22;8048;50.644;6.184;2023-04-24T03:50:35;6.70;99.90
15900;DHT22;8048;50.644;6.184;2023-04-24T03:53:01;6.70;99.90
15900;DHT22;8048;50.644;6.184;2023-04-24T03:55:26;6.70;99.90
15900;DHT22;8048;50.644;6.184;2023-04-24T03:57:52;6.70;99.90
15900;DHT22;8048;50.644;6.184;2023-04-24T04:00:17;6.70;99.90
15900;DHT22;8048;50.644;6.184;2023-04-24T04:02:43;6.70;99.90
15900;DHT22;8048;50.644;6.184;2023-04-24T04:05:09;6.70;99.90
15900;DHT22;8048;50.644;6.184;2023-04-24T04:07:35;6.60;99.90
15900;DHT22;8048;50.644;6.184;2023-04-24T04:10:00;6.70;99.90
15900;DHT22;8048;50.644;6.184;2023-04-24T04:12:26;6.70;99.90
15900;DHT22;8048;50.644;6.184;2023-04-24T04:14:51;6.70;99.90
15900;DHT22;8048;50.644;6.184;2023-04-24T04:17:17;6.70;99.90
15900;DHT22;8048;50.644;6.184;2023-04-24T04:19:43;6.60;99.90
15900;DHT22;8048;50.644;6.184;2023-04-24T04:22:08;6.70;99.90
15900;DHT22;8048;50.644;6.184;2023-04-24T04:24:34;6.70;99.90
15900;DHT22;8048;50.644;6.184;2023-04-24T04:27:03;6.70;99.90
15900;DHT22;8048;50.644;6.184;2023-04-24T04:29:30;6.70;99.90
15900;DHT22;8048;50.644;6.184;2023-04-24T04:31:56;6.70;99.90
15900;DHT22;8048;50.644;6.184;2023-04-24T04:34:22;6.70;99.90
15900;DHT22;8048;50.644;6.184;2023-04-24T04:36:48;6.70;99.90
15900;DHT22;8048;50.644;6.184;2023-04-24T04:39:14;6.70;99.90
15900;DHT22;8048;50.644;6.184;2023-04-24T04:41:41;6.70;99.90
15900;DHT22;8048;50.644;6.184;2023-04-24T04:44:07;6.70;99.90
15900;DHT22;8048;50.644;6.184;2023-04-24T04:46:34;6.80;99.90
15900;DHT22;8048;50.644;6.184;2023-04-24T04:49:00;6.70;99.90
15900;DHT22;8048;50.644;6.184;2023-04-24T04:51:26;6.70;99.90
15900;DHT22;8048;50.644;6.184;2023-04-24T04:53:52;6.70;99.90
15900;DHT22;8048;50.644;6.184;2023-04-24T04:56:18;6.70;99.90
15900;DHT22;8048;50.644;6.184;2023-04-24T04:58:43;6.70;99.90
15900;DHT22;8048;50.644;6.184;2023-04-24T05:01:09;6.70;99.90
15900;DHT22;8048;50.644;6.184;2023-04-24T05:03:34;6.70;99.90
15900;DHT22;8048;50.644;6.184;2023-04-24T05:06:01;6.60;99.90
15900;DHT22;8048;50.644;6.184;2023-04-24T05:08:27;6.60;99.90
15900;DHT22;8048;50.644;6.184;2023-04-24T05:10:53;6.60;99.90
15900;DHT22;8048;50.644;6.184;2023-04-24T05:13:18;6.60;99.90
15900;DHT22;8048;50.644;6.184;2023-04-24T05:15:44;6.50;99.90
15900;DHT22;8048;50.644;6.184;2023-04-24T05:18:10;6.50;99.90
15900;DHT22;8048;50.644;6.184;2023-04-24T05:20:35;6.60;99.90
15900;DHT22;8048;50.644;6.184;2023-04-24T05:23:01;6.50;99.90
15900;DHT22;8048;50.644;6.184;2023-04-24T05:25:26;6.60;99.90
15900;DHT22;8048;50.644;6.184;2023-04-24T05:27:52;6.50;99.90
15900;DHT22;8048;50.644;6.184;2023-04-24T05:30:19;6.50;99.90
15900;DHT22;8048;50.644;6.184;2023-04-24T05:32:45;6.50;99.90
15900;DHT22;8048;50.644;6.184;2023-04-24T05:35:10;6.50;99.90
15900;DHT22;8048;50.644;6.184;2023-04-24T05:37:36;6.50;99.90
15900;DHT22;8048;50.644;6.184;2023-04-24T05:40:01;6.50;99.90
15900;DHT22;8048;50.644;6.184;2023-04-24T05:42:29;6.50;99.90
15900;DHT22;8048;50.644;6.184;2023-04-24T05:44:55;6.40;99.90
15900;DHT22;8048;50.644;6.184;2023-04-24T05:47:20;6.40;99.90
15900;DHT22;8048;50.644;6.184;2023-04-24T05:49:47;6.40;99.90
15900;DHT22;8048;50.644;6.184;2023-04-24T05:52:13;6.30;99.90
15900;DHT22;8048;50.644;6.184;2023-04-24T05:54:38;6.40;99.90
15900;DHT22;8048;50.644;6.184;2023-04-24T05:57:04;6.40;99.90
15900;DHT22;8048;50.644;6.184;2023-04-24T05:59:33;6.40;99.90
15900;DHT22;8048;50.644;6.184;2023-04-24T06:01:59;6.40;99.90
15900;DHT22;8048;50.644;6.184;2023-04-24T06:04:25;6.40;99.90
15900;DHT22;8048;50.644;6.184;2023-04-24T06:06:51;6.30;99.90
15900;DHT22;8048;50.644;6.184;2023-04-24T06:09:22;6.40;99.90
15900;DHT22;8048;50.644;6.184;2023-04-24T06:11:48;6.30;99.90
15900;DHT22;8048;50.644;6.184;2023-04-24T06:14:13;6.40;99.90
15900;DHT22;8048;50.644;6.184;2023-04-24T06:16:41;6.30;99.90
15900;DHT22;8048;50.644;6.184;2023-04-24T06:19:07;6.40;99.90
15900;DHT22;8048;50.644;6.184;2023-04-24T06:21:32;6.40;99.90
15900;DHT22;8048;50.644;6.184;2023-04-24T06:23:58;6.40;99.90
15900;DHT22;8048;50.644;6.184;2023-04-24T06:26:24;6.50;99.90
15900;DHT22;8048;50.644;6.184;2023-04-24T06:28:52;6.50;99.90
15900;DHT22;8048;50.644;6.184;2023-04-24T06:31:21;6.50;99.90
15900;DHT22;8048;50.644;6.184;2023-04-24T06:33:48;6.50;99.90
15900;DHT22;8048;50.644;6.184;2023-04-24T06:36:14;6.50;99.90
15900;DHT22;8048;50.644;6.184;2023-04-24T06:38:41;6.50;99.90
15900;DHT22;8048;50.644;6.184;2023-04-24T06:41:07;6.50;99.90
15900;DHT22;8048;50.644;6.184;2023-04-24T06:43:33;6.50;99.90
15900;DHT22;8048;50.644;6.184;2023-04-24T06:45:59;6.60;99.90
15900;DHT22;8048;50.644;6.184;2023-04-24T06:48:25;6.60;99.90
15900;DHT22;8048;50.644;6.184;2023-04-24T06:50:51;6.60;99.90
15900;DHT22;8048;50.644;6.184;2023-04-24T06:53:17;6.60;99.90
15900;DHT22;8048;50.644;6.184;2023-04-24T06:55:42;6.60;99.90
15900;DHT22;8048;50.644;6.184;2023-04-24T06:58:10;6.60;99.90
15900;DHT22;8048;50.644;6.184;2023-04-24T07:00:36;6.60;99.90
15900;DHT22;8048;50.644;6.184;2023-04-24T07:03:01;6.60;99.90
15900;DHT22;8048;50.644;6.184;2023-04-24T07:05:27;6.60;99.90
15900;DHT22;8048;50.644;6.184;2023-04-24T07:07:53;6.50;99.90
15900;DHT22;8048;50.644;6.184;2023-04-24T07:10:19;6.50;99.90
15900;DHT22;8048;50.644;6.184;2023-04-24T07:12:45;6.50;99.90
15900;DHT22;8048;50.644;6.184;2023-04-24T07:15:11;6.50;99.90
15900;DHT22;8048;50.644;6.184;2023-04-24T07:17:37;6.50;99.90
15900;DHT22;8048;50.644;6.184;2023-04-24T07:20:04;6.50;99.90
15900;DHT22;8048;50.644;6.184;2023-04-24T07:22:30;6.50;99.90
15900;DHT22;8048;50.644;6.184;2023-04-24T07:24:56;6.50;99.90
15900;DHT22;8048;50.644;6.184;2023-04-24T07:27:22;6.50;99.90
15900;DHT22;8048;50.644;6.184;2023-04-24T07:29:47;6.50;99.90
15900;DHT22;8048;50.644;6.184;2023-04-24T07:32:13;6.50;99.90
15900;DHT22;8048;50.644;6.184;2023-04-24T07:34:39;6.50;99.90
15900;DHT22;8048;50.644;6.184;2023-04-24T07:37:04;6.40;99.90
15900;DHT22;8048;50.644;6.184;2023-04-24T07:39:30;6.40;99.90
15900;DHT22;8048;50.644;6.184;2023-04-24T07:41:56;6.40;99.90
15900;DHT22;8048;50.644;6.184;2023-04-24T07:44:22;6.40;99.90
15900;DHT22;8048;50.644;6.184;2023-04-24T07:46:47;6.40;99.90
15900;DHT22;8048;50.644;6.184;2023-04-24T07:49:13;6.30;99.90
15900;DHT22;8048;50.644;6.184;2023-04-24T07:51:39;6.30;99.90
15900;DHT22;8048;50.644;6.184;2023-04-24T07:54:05;6.40;99.90
15900;DHT22;8048;50.644;6.184;2023-04-24T07:56:33;6.40;99.90
15900;DHT22;8048;50.644;6.184;2023-04-24T07:59:00;6.40;99.90
15900;DHT22;8048;50.644;6.184;2023-04-24T08:01:26;6.40;99.90
15900;DHT22;8048;50.644;6.184;2023-04-24T08:03:52;6.40;99.90
15900;DHT22;8048;50.644;6.184;2023-04-24T08:06:17;6.30;99.90
15900;DHT22;8048;50.644;6.184;2023-04-24T08:08:43;6.30;99.90
15900;DHT22;8048;50.644;6.184;2023-04-24T08:11:08;6.40;99.90
15900;DHT22;8048;50.644;6.184;2023-04-24T08:13:34;6.40;99.90
15900;DHT22;8048;50.644;6.184;2023-04-24T08:16:00;6.40;99.90
15900;DHT22;8048;50.644;6.184;2023-04-24T08:18:26;6.50;99.90
15900;DHT22;8048;50.644;6.184;2023-04-24T08:20:51;6.60;99.90
15900;DHT22;8048;50.644;6.184;2023-04-24T08:23:17;6.60;99.90
15900;DHT22;8048;50.644;6.184;2023-04-24T08:25:42;6.60;99.90
15900;DHT22;8048;50.644;6.184;2023-04-24T08:28:09;6.60;99.90
15900;DHT22;8048;50.644;6.184;2023-04-24T08:30:36;6.60;99.90
15900;DHT22;8048;50.644;6.184;2023-04-24T08:33:01;6.60;99.90
15900;DHT22;8048;50.644;6.184;2023-04-24T08:35:27;6.60;99.90
15900;DHT22;8048;50.644;6.184;2023-04-24T08:37:53;6.70;99.90
15900;DHT22;8048;50.644;6.184;2023-04-24T08:40:23;6.70;99.90
15900;DHT22;8048;50.644;6.184;2023-04-24T08:42:54;6.70;99.90
15900;DHT22;8048;50.644;6.184;2023-04-24T08:45:20;6.80;99.90
15900;DHT22;8048;50.644;6.184;2023-04-24T08:47:46;6.80;99.90
15900;DHT22;8048;50.644;6.184;2023-04-24T08:50:13;6.90;99.90
15900;DHT22;8048;50.644;6.184;2023-04-24T08:52:38;6.90;99.90
15900;DHT22;8048;50.644;6.184;2023-04-24T08:55:05;6.90;99.90
15900;DHT22;8048;50.644;6.184;2023-04-24T08:57:31;6.90;99.90
15900;DHT22;8048;50.644;6.184;2023-04-24T08:59:58;6.90;99.90
15900;DHT22;8048;50.644;6.184;2023-04-24T09:02:25;7.00;99.90
15900;DHT22;8048;50.644;6.184;2023-04-24T09:04:51;6.90;99.90
15900;DHT22;8048;50.644;6.184;2023-04-24T09:07:18;7.00;99.90
15900;DHT22;8048;50.644;6.184;2023-04-24T09:09:45;7.00;99.90
15900;DHT22;8048;50.644;6.184;2023-04-24T09:12:11;7.00;99.90
15900;DHT22;8048;50.644;6.184;2023-04-24T09:14:37;7.00;99.90
15900;DHT22;8048;50.644;6.184;2023-04-24T09:17:11;7.00;99.90
15900;DHT22;8048;50.644;6.184;2023-04-24T09:19:36;7.00;99.90
15900;DHT22;8048;50.644;6.184;2023-04-24T09:22:06;7.10;99.90
15900;DHT22;8048;50.644;6.184;2023-04-24T09:24:33;7.00;99.90
15900;DHT22;8048;50.644;6.184;2023-04-24T09:26:59;7.10;99.90
15900;DHT22;8048;50.644;6.184;2023-04-24T09:29:27;7.10;99.90
15900;DHT22;8048;50.644;6.184;2023-04-24T09:31:53;7.10;99.90
15900;DHT22;8048;50.644;6.184;2023-04-24T09:34:36;7.00;99.90
15900;DHT22;8048;50.644;6.184;2023-04-24T09:37:02;7.00;99.90
15900;DHT22;8048;50.644;6.184;2023-04-24T09:39:27;7.00;99.90
15900;DHT22;8048;50.644;6.184;2023-04-24T09:41:56;6.90;99.90
15900;DHT22;8048;50.644;6.184;2023-04-24T09:44:24;6.90;99.90
15900;DHT22;8048;50.644;6.184;2023-04-24T09:46:52;6.90;99.90
15900;DHT22;8048;50.644;6.184;2023-04-24T09:49:30;6.90;99.90
15900;DHT22;8048;50.644;6.184;2023-04-24T09:52:08;6.90;99.90
15900;DHT22;8048;50.644;6.184;2023-04-24T09:54:33;6.90;99.90
15900;DHT22;8048;50.644;6.184;2023-04-24T09:56:59;7.00;99.90
15900;DHT22;8048;50.644;6.184;2023-04-24T09:59:28;7.00;99.90
15900;DHT22;8048;50.644;6.184;2023-04-24T10:01:54;7.00;99.90
15900;DHT22;8048;50.644;6.184;2023-04-24T10:04:23;7.00;99.90
15900;DHT22;8048;50.644;6.184;2023-04-24T10:06:50;7.10;99.90
15900;DHT22;8048;50.644;6.184;2023-04-24T10:09:21;7.20;99.90
15900;DHT22;8048;50.644;6.184;2023-04-24T10:11:49;7.40;99.90
15900;DHT22;8048;50.644;6.184;2023-04-24T10:14:19;7.50;99.90
15900;DHT22;8048;50.644;6.184;2023-04-24T10:16:46;7.60;99.90
15900;DHT22;8048;50.644;6.184;2023-04-24T10:19:13;7.60;99.90
15900;DHT22;8048;50.644;6.184;2023-04-24T10:21:41;7.60;99.90
15900;DHT22;8048;50.644;6.184;2023-04-24T10:24:08;7.50;99.90
15900;DHT22;8048;50.644;6.184;2023-04-24T10:26:35;7.50;99.90
15900;DHT22;8048;50.644;6.184;2023-04-24T10:29:01;7.50;99.90
15900;DHT22;8048;50.644;6.184;2023-04-24T10:31:31;7.30;99.90
15900;DHT22;8048;50.644;6.184;2023-04-24T10:33:58;7.40;99.90
15900;DHT22;8048;50.644;6.184;2023-04-24T10:36:25;7.40;99.90
15900;DHT22;8048;50.644;6.184;2023-04-24T10:38:54;7.50;99.90
15900;DHT22;8048;50.644;6.184;2023-04-24T10:41:21;7.50;99.90
15900;DHT22;8048;50.644;6.184;2023-04-24T10:44:13;7.50;99.90
15900;DHT22;8048;50.644;6.184;2023-04-24T10:46:43;7.60;99.90
15900;DHT22;8048;50.644;6.184;2023-04-24T10:49:09;7.50;99.90
15900;DHT22;8048;50.644;6.184;2023-04-24T10:51:49;7.50;99.90
15900;DHT22;8048;50.644;6.184;2023-04-24T10:54:29;7.50;99.90
15900;DHT22;8048;50.644;6.184;2023-04-24T10:59:43;7.70;99.90
15900;DHT22;8048;50.644;6.184;2023-04-24T11:02:09;7.80;99.90
15900;DHT22;8048;50.644;6.184;2023-04-24T11:04:35;8.00;99.90
15900;DHT22;8048;50.644;6.184;2023-04-24T11:07:02;8.30;99.90
15900;DHT22;8048;50.644;6.184;2023-04-24T11:09:30;8.50;99.90
15900;DHT22;8048;50.644;6.184;2023-04-24T11:17:35;8.50;99.90
15900;DHT22;8048;50.644;6.184;2023-04-24T11:20:07;8.40;99.90
15900;DHT22;8048;50.644;6.184;2023-04-24T11:22:35;8.30;99.90
15900;DHT22;8048;50.644;6.184;2023-04-24T11:25:02;8.40;99.90
15900;DHT22;8048;50.644;6.184;2023-04-24T11:27:42;8.60;99.90
15900;DHT22;8048;50.644;6.184;2023-04-24T11:30:09;8.70;99.90
15900;DHT22;8048;50.644;6.184;2023-04-24T11:32:40;8.90;99.90
15900;DHT22;8048;50.644;6.184;2023-04-24T11:35:12;9.20;99.90
15900;DHT22;8048;50.644;6.184;2023-04-24T11:37:43;9.80;99.90
15900;DHT22;8048;50.644;6.184;2023-04-24T11:40:12;10.70;99.90
15900;DHT22;8048;50.644;6.184;2023-04-24T11:42:40;11.10;99.90
15900;DHT22;8048;50.644;6.184;2023-04-24T11:45:14;11.50;99.90
15900;DHT22;8048;50.644;6.184;2023-04-24T11:47:40;11.50;99.90
15900;DHT22;8048;50.644;6.184;2023-04-24T11:50:08;11.40;99.90
15900;DHT22;8048;50.644;6.184;2023-04-24T11:52:38;11.20;99.90
15900;DHT22;8048;50.644;6.184;2023-04-24T11:55:07;10.80;99.90
15900;DHT22;8048;50.644;6.184;2023-04-24T11:57:33;10.40;99.90
15900;DHT22;8048;50.644;6.184;2023-04-24T12:00:03;10.00;99.90
15900;DHT22;8048;50.644;6.184;2023-04-24T12:02:30;9.70;99.90
15900;DHT22;8048;50.644;6.184;2023-04-24T12:04:56;9.50;99.90
15900;DHT22;8048;50.644;6.184;2023-04-24T12:07:22;9.40;99.90
15900;DHT22;8048;50.644;6.184;2023-04-24T12:09:57;9.30;99.90
15900;DHT22;8048;50.644;6.184;2023-04-24T12:12:28;9.20;99.90
15900;DHT22;8048;50.644;6.184;2023-04-24T12:14:55;9.20;99.90
15900;DHT22;8048;50.644;6.184;2023-04-24T12:17:32;9.20;99.90
15900;DHT22;8048;50.644;6.184;2023-04-24T12:20:03;9.90;99.90
15900;DHT22;8048;50.644;6.184;2023-04-24T12:22:49;10.90;99.90
15900;DHT22;8048;50.644;6.184;2023-04-24T12:25:16;11.30;99.90
15900;DHT22;8048;50.644;6.184;2023-04-24T12:27:43;11.50;99.90
15900;DHT22;8048;50.644;6.184;2023-04-24T12:30:14;11.30;99.90
15900;DHT22;8048;50.644;6.184;2023-04-24T12:32:48;11.10;99.90
15900;DHT22;8048;50.644;6.184;2023-04-24T12:35:21;11.00;99.90
15900;DHT22;8048;50.644;6.184;2023-04-24T12:37:47;10.80;99.90
15900;DHT22;8048;50.644;6.184;2023-04-24T12:40:13;10.80;99.90
15900;DHT22;8048;50.644;6.184;2023-04-24T12:42:45;10.90;99.90
15900;DHT22;8048;50.644;6.184;2023-04-24T12:45:11;11.20;99.90
15900;DHT22;8048;50.644;6.184;2023-04-24T12:47:38;12.10;99.90
15900;DHT22;8048;50.644;6.184;2023-04-24T12:50:04;12.50;99.90
15900;DHT22;8048;50.644;6.184;2023-04-24T12:52:31;12.40;99.70
15900;DHT22;8048;50.644;6.184;2023-04-24T12:54:59;12.20;98.50
15900;DHT22;8048;50.644;6.184;2023-04-24T12:57:27;12.00;99.90
15900;DHT22;8048;50.644;6.184;2023-04-24T12:59:58;11.70;98.70
15900;DHT22;8048;50.644;6.184;2023-04-24T13:02:29;11.50;99.90
15900;DHT22;8048;50.644;6.184;2023-04-24T13:04:59;11.00;97.50
15900;DHT22;8048;50.644;6.184;2023-04-24T13:07:26;10.70;98.10
15900;DHT22;8048;50.644;6.184;2023-04-24T13:09:52;10.40;98.10
15900;DHT22;8048;50.644;6.184;2023-04-24T13:12:18;10.40;99.40
15900;DHT22;8048;50.644;6.184;2023-04-24T13:14:43;10.40;99.50
15900;DHT22;8048;50.644;6.184;2023-04-24T13:17:09;10.40;99.20
15900;DHT22;8048;50.644;6.184;2023-04-24T13:19:36;10.40;99.20
15900;DHT22;8048;50.644;6.184;2023-04-24T13:22:03;10.40;99.40
15900;DHT22;8048;50.644;6.184;2023-04-24T13:24:29;10.30;99.20
15900;DHT22;8048;50.644;6.184;2023-04-24T13:26:56;10.30;99.00
15900;DHT22;8048;50.644;6.184;2023-04-24T13:29:22;10.30;99.90
15900;DHT22;8048;50.644;6.184;2023-04-24T13:31:49;10.40;99.90
15900;DHT22;8048;50.644;6.184;2023-04-24T13:34:15;10.50;99.90
15900;DHT22;8048;50.644;6.184;2023-04-24T13:36:40;10.50;99.60
15900;DHT22;8048;50.644;6.184;2023-04-24T13:39:06;10.50;99.90
15900;DHT22;8048;50.644;6.184;2023-04-24T13:41:32;10.40;99.90
15900;DHT22;8048;50.644;6.184;2023-04-24T13:43:58;10.40;99.90
15900;DHT22;8048;50.644;6.184;2023-04-24T13:46:24;10.50;99.90
15900;DHT22;8048;50.644;6.184;2023-04-24T13:48:49;10.60;99.30
15900;DHT22;8048;50.644;6.184;2023-04-24T13:51:15;10.80;99.10
15900;DHT22;8048;50.644;6.184;2023-04-24T13:53:40;10.80;98.80
15900;DHT22;8048;50.644;6.184;2023-04-24T13:56:06;11.00;99.40
15900;DHT22;8048;50.644;6.184;2023-04-24T13:58:32;11.00;98.00
15900;DHT22;8048;50.644;6.184;2023-04-24T14:00:57;11.00;99.90
15900;DHT22;8048;50.644;6.184;2023-04-24T14:03:23;11.10;99.90
15900;DHT22;8048;50.644;6.184;2023-04-24T14:05:49;11.00;99.40
15900;DHT22;8048;50.644;6.184;2023-04-24T14:08:15;10.80;98.30
15900;DHT22;8048;50.644;6.184;2023-04-24T14:10:40;10.70;99.00
15900;DHT22;8048;50.644;6.184;2023-04-24T14:13:06;10.60;99.70
15900;DHT22;8048;50.644;6.184;2023-04-24T14:15:31;10.80;99.90
15900;DHT22;8048;50.644;6.184;2023-04-24T14:17:57;11.50;99.90
15900;DHT22;8048;50.644;6.184;2023-04-24T14:20:23;12.10;99.90
15900;DHT22;8048;50.644;6.184;2023-04-24T14:22:49;12.50;98.40
15900;DHT22;8048;50.644;6.184;2023-04-24T14:25:14;12.40;95.60
15900;DHT22;8048;50.644;6.184;2023-04-24T14:27:40;12.10;95.30
15900;DHT22;8048;50.644;6.184;2023-04-24T14:30:06;12.10;95.70
15900;DHT22;8048;50.644;6.184;2023-04-24T14:32:32;11.90;95.60
15900;DHT22;8048;50.644;6.184;2023-04-24T14:34:58;11.90;96.60
15900;DHT22;8048;50.644;6.184;2023-04-24T14:37:23;12.00;95.50
15900;DHT22;8048;50.644;6.184;2023-04-24T14:39:49;11.90;96.00
15900;DHT22;8048;50.644;6.184;2023-04-24T14:42:14;11.90;95.40
15900;DHT22;8048;50.644;6.184;2023-04-24T14:44:42;11.80;95.70
15900;DHT22;8048;50.644;6.184;2023-04-24T14:47:07;12.00;97.00
15900;DHT22;8048;50.644;6.184;2023-04-24T14:49:33;12.20;98.30
15900;DHT22;8048;50.644;6.184;2023-04-24T14:51:59;12.20;97.30
15900;DHT22;8048;50.644;6.184;2023-04-24T14:54:24;12.30;96.90
15900;DHT22;8048;50.644;6.184;2023-04-24T14:56:50;12.20;95.70
15900;DHT22;8048;50.644;6.184;2023-04-24T14:59:16;12.00;95.00
15900;DHT22;8048;50.644;6.184;2023-04-24T15:01:42;11.90;95.60
15900;DHT22;8048;50.644;6.184;2023-04-24T15:04:07;11.70;94.40
15900;DHT22;8048;50.644;6.184;2023-04-24T15:06:33;11.60;95.20
15900;DHT22;8048;50.644;6.184;2023-04-24T15:08:58;11.50;95.20
15900;DHT22;8048;50.644;6.184;2023-04-24T15:11:24;11.40;94.70
15900;DHT22;8048;50.644;6.184;2023-04-24T15:13:50;11.30;94.40
15900;DHT22;8048;50.644;6.184;2023-04-24T15:16:15;11.20;94.50
15900;DHT22;8048;50.644;6.184;2023-04-24T15:18:41;11.00;94.50
15900;DHT22;8048;50.644;6.184;2023-04-24T15:21:07;10.90;94.70
15900;DHT22;8048;50.644;6.184;2023-04-24T15:23:32;10.70;94.60
15900;DHT22;8048;50.644;6.184;2023-04-24T15:25:58;10.60;95.50
15900;DHT22;8048;50.644;6.184;2023-04-24T15:28:24;10.50;96.50
15900;DHT22;8048;50.644;6.184;2023-04-24T15:30:50;10.50;96.30
15900;DHT22;8048;50.644;6.184;2023-04-24T15:33:15;10.50;97.00
15900;DHT22;8048;50.644;6.184;2023-04-24T15:35:41;10.50;96.60
15900;DHT22;8048;50.644;6.184;2023-04-24T15:38:06;10.50;96.60
15900;DHT22;8048;50.644;6.184;2023-04-24T15:40:32;10.50;96.00
15900;DHT22;8048;50.644;6.184;2023-04-24T15:42:58;10.50;97.10
15900;DHT22;8048;50.644;6.184;2023-04-24T15:45:24;10.40;97.50
15900;DHT22;8048;50.644;6.184;2023-04-24T15:47:50;10.50;97.30
15900;DHT22;8048;50.644;6.184;2023-04-24T15:50:16;10.40;97.10
15900;DHT22;8048;50.644;6.184;2023-04-24T15:52:42;10.30;97.70
15900;DHT22;8048;50.644;6.184;2023-04-24T15:55:08;10.20;97.60
15900;DHT22;8048;50.644;6.184;2023-04-24T15:57:34;10.10;98.40
15900;DHT22;8048;50.644;6.184;2023-04-24T16:00:00;10.10;98.40
15900;DHT22;8048;50.644;6.184;2023-04-24T16:02:26;10.00;98.60